Time;durP1;ratioP1;P1;durP2;ratioP2;P2;SDS_P1;SDS_P2;PMS_P1;PMS_P2;Temp;Humidity;BMP_temperature;BMP_pressure;BME280_temperature;BME280_humidity;BME280_pressure;Samples;Min_cycle;Max_cycle;Signal;HPM_P1;HPM_P2
2022/09/11 00:01:41;;;;;;;;;;;;;;;24.40;38.77;98928.09;4484373;32;33810;-84
2022/09/11 00:04:11;;;;;;;;;;;;;;;24.40;38.66;98924.59;4484091;32;34360;-87
2022/09/11 00:06:39;;;;;;;;;;;;;;;24.24;38.71;98917.34;4474169;32;34268;-84
2022/09/11 00:09:07;;;;;;;;;;;;;;;24.35;38.73;98914.16;4454305;32;34101;-84
2022/09/11 00:11:39;;;;;;;;;;;;;;;24.14;38.81;98920.47;4468239;32;34316;-81
2022/09/11 00:14:06;;;;;;;;;;;;;;;24.16;39.06;98914.16;4468381;32;34274;-81
2022/09/11 00:16:35;;;;;;;;;;;;;;;24.06;39.19;98910.25;4462376;32;34243;-90
2022/09/11 00:19:04;;;;;;;;;;;;;;;24.22;38.84;98913.88;4483901;32;34299;-86
2022/09/11 00:21:31;;;;;;;;;;;;;;;24.11;38.93;98900.28;4483156;32;34199;-81
2022/09/11 00:24:00;;;;;;;;;;;;;;;24.12;39.05;98899.34;4472887;32;34482;-83
2022/09/11 00:26:27;;;;;;;;;;;;;;;24.31;38.58;98895.84;4454459;32;34118;-81
2022/09/11 00:28:54;;;;;;;;;;;;;;;24.18;38.75;98896.41;4468283;32;34801;-88
2022/09/11 00:31:23;;;;;;;;;;;;;;;24.14;38.73;98896.66;4467982;32;34261;-82
2022/09/11 00:33:50;;;;;;;;;;;;;;;24.07;38.78;98893.41;4463568;32;34307;-86
2022/09/11 00:36:18;;;;;;;;;;;;;;;23.93;39.28;98895.84;4454222;32;35182;-82
2022/09/11 00:38:46;;;;;;;;;;;;;;;23.78;39.50;98903.53;4467938;32;34216;-82
2022/09/11 00:41:15;;;;;;;;;;;;;;;23.59;39.73;98897.31;4454221;32;33203;-82
2022/09/11 00:43:56;;;;;;;;;;;;;;;23.61;39.94;98895.50;4477419;32;34510;-88
2022/09/11 00:46:25;;;;;;;;;;;;;;;23.61;39.74;98898.13;4462453;32;34994;-83
2022/09/11 00:48:52;;;;;;;;;;;;;;;23.37;40.31;98902.69;4462854;32;34956;-84
2022/09/11 00:51:20;;;;;;;;;;;;;;;23.67;39.76;98899.66;4462433;32;33668;-82
2022/09/11 00:53:48;;;;;;;;;;;;;;;23.69;39.71;98898.69;4457760;32;34118;-80
2022/09/11 00:56:15;;;;;;;;;;;;;;;23.27;40.37;98896.97;4477800;32;33043;-83
2022/09/11 00:58:43;;;;;;;;;;;;;;;23.30;40.37;98904.78;4478611;32;34087;-87
2022/09/11 01:01:12;;;;;;;;;;;;;;;23.51;39.88;98907.41;4464286;32;33434;-86
2022/09/11 01:03:39;;;;;;;;;;;;;;;23.22;40.49;98903.37;4483782;32;34234;-80
2022/09/11 01:06:06;;;;;;;;;;;;;;;23.23;40.15;98899.81;4483597;32;34481;-84
2022/09/11 01:08:34;;;;;;;;;;;;;;;23.37;40.24;98894.75;4469414;32;34882;-87
2022/09/11 01:11:16;;;;;;;;;;;;;;;23.58;39.65;98890.31;4483026;32;34454;-82
2022/09/11 01:14:04;;;;;;;;;;;;;;;23.59;39.73;98892.03;4483558;32;33921;-89
2022/09/11 01:16:34;;;;;;;;;;;;;;;23.38;40.16;98887.72;4450807;32;34427;-88
2022/09/11 01:19:05;;;;;;;;;;;;;;;22.74;41.21;98886.00;4467740;32;33914;-81
2022/09/11 01:21:44;;;;;;;;;;;;;;;23.42;40.17;98881.34;4468006;32;33413;-81
2022/09/11 01:24:12;;;;;;;;;;;;;;;23.62;39.80;98878.69;4467604;32;34074;-88
2022/09/11 01:26:42;;;;;;;;;;;;;;;23.16;40.88;98882.50;4467598;32;34798;-87
2022/09/11 01:29:12;;;;;;;;;;;;;;;23.62;39.23;98881.31;4467483;32;35048;-88
2022/09/11 01:31:40;;;;;;;;;;;;;;;23.35;40.07;98882.56;4467721;32;33186;-85
2022/09/11 01:34:43;;;;;;;;;;;;;;;22.61;41.81;98888.25;4453582;32;34401;-86
2022/09/11 01:37:16;;;;;;;;;;;;;;;22.23;42.22;98879.22;4406363;32;33608;-89
2022/09/11 01:39:45;;;;;;;;;;;;;;;22.22;42.00;98867.81;4446593;32;34068;-82
2022/09/11 01:42:16;;;;;;;;;;;;;;;22.15;42.51;98861.03;4453457;32;34256;-80
2022/09/11 01:44:47;;;;;;;;;;;;;;;22.32;42.35;98858.59;4459840;32;34159;-80
2022/09/11 01:47:15;;;;;;;;;;;;;;;22.46;42.01;98859.81;4456168;32;33949;-86
2022/09/11 01:49:44;;;;;;;;;;;;;;;22.70;41.46;98852.69;4455159;32;34751;-81
2022/09/11 01:52:12;;;;;;;;;;;;;;;21.72;43.53;98852.09;4471962;32;33389;-86
2022/09/11 01:54:44;;;;;;;;;;;;;;;22.31;42.54;98848.97;4463550;32;35085;-80
2022/09/11 01:57:14;;;;;;;;;;;;;;;22.37;42.07;98847.00;4462226;32;34115;-83
2022/09/11 01:59:43;;;;;;;;;;;;;;;21.89;43.61;98847.97;4463088;32;33814;-87
2022/09/11 02:02:11;;;;;;;;;;;;;;;20.93;45.65;98854.94;4462916;32;33583;-86
2022/09/11 02:04:40;;;;;;;;;;;;;;;20.76;46.08;98853.75;4474815;32;34147;-81
2022/09/11 02:07:14;;;;;;;;;;;;;;;21.80;43.66;98843.91;4462642;32;34110;-86
2022/09/11 02:09:46;;;;;;;;;;;;;;;20.22;47.31;98846.66;4477101;32;33733;-88
2022/09/11 02:12:14;;;;;;;;;;;;;;;20.54;46.71;98858.00;4458539;32;33206;-81
2022/09/11 02:14:42;;;;;;;;;;;;;;;20.17;47.92;98853.84;4471439;32;34730;-81
2022/09/11 02:17:17;;;;;;;;;;;;;;;21.24;45.12;98855.56;4462762;32;34882;-80
2022/09/11 02:19:44;;;;;;;;;;;;;;;20.11;47.65;98862.78;4458426;32;34200;-85
2022/09/11 02:22:12;;;;;;;;;;;;;;;20.84;46.18;98853.47;4472166;32;34192;-82
2022/09/11 02:24:39;;;;;;;;;;;;;;;19.67;49.26;98854.47;4471549;32;34103;-86
2022/09/11 02:27:08;;;;;;;;;;;;;;;21.11;45.33;98843.75;4476309;32;34215;-82
2022/09/11 02:29:35;;;;;;;;;;;;;;;20.85;45.94;98847.28;4462307;32;34395;-87
2022/09/11 02:32:03;;;;;;;;;;;;;;;20.35;47.63;98848.03;4461977;32;34384;-90
2022/09/11 02:34:32;;;;;;;;;;;;;;;21.59;44.37;98841.16;4475949;32;35509;-80
2022/09/11 02:36:59;;;;;;;;;;;;;;;21.57;44.33;98848.25;4462292;32;34474;-81
2022/09/11 02:39:41;;;;;;;;;;;;;;;21.89;43.57;98843.53;4476162;32;34260;-91
2022/09/11 02:42:14;;;;;;;;;;;;;;;21.74;43.78;98841.47;4461938;32;33331;-79
2022/09/11 02:44:47;;;;;;;;;;;;;;;21.81;43.78;98843.81;4476337;32;34265;-82
2022/09/11 02:47:39;;;;;;;;;;;;;;;21.84;43.42;98856.06;4473019;32;33983;-81
2022/09/11 02:50:16;;;;;;;;;;;;;;;20.59;46.43;98853.44;4447204;32;33720;-84
2022/09/11 02:52:48;;;;;;;;;;;;;;;21.01;45.63;98856.38;4478733;32;33526;-83
2022/09/11 02:55:21;;;;;;;;;;;;;;;20.61;46.64;98856.88;4464471;32;34217;-85
2022/09/11 02:58:09;;;;;;;;;;;;;;;20.53;47.12;98853.62;4458386;32;34074;-80
2022/09/11 03:00:38;;;;;;;;;;;;;;;21.39;45.21;98859.47;4476074;32;34070;-87
2022/09/11 03:03:06;;;;;;;;;;;;;;;21.91;43.91;98846.12;4462693;32;33172;-82
2022/09/11 03:05:36;;;;;;;;;;;;;;;21.90;43.78;98850.56;4479862;31;34641;-87
2022/09/11 03:08:03;;;;;;;;;;;;;;;21.94;43.79;98856.59;4481844;32;33031;-87
2022/09/11 03:10:30;;;;;;;;;;;;;;;21.58;44.77;98857.03;4484371;32;35024;-82
2022/09/11 03:12:58;;;;;;;;;;;;;;;20.50;47.25;98862.50;4484490;32;32917;-86
2022/09/11 03:15:26;;;;;;;;;;;;;;;21.42;45.04;98864.66;4484242;32;34236;-82
2022/09/11 03:17:54;;;;;;;;;;;;;;;21.91;43.95;98854.91;4482953;32;35148;-82
2022/09/11 03:20:21;;;;;;;;;;;;;;;21.59;44.59;98864.91;4482318;31;34496;-88
2022/09/11 03:22:48;;;;;;;;;;;;;;;21.34;45.46;98861.44;4475399;31;33385;-92
2022/09/11 03:25:16;;;;;;;;;;;;;;;21.78;44.34;98859.81;4472549;32;34209;-88
2022/09/11 03:27:44;;;;;;;;;;;;;;;22.14;43.44;98854.03;4474996;31;34283;-87
2022/09/11 03:30:11;;;;;;;;;;;;;;;22.25;43.25;98857.13;4473170;32;33839;-81
2022/09/11 03:32:39;;;;;;;;;;;;;;;22.45;43.04;98853.69;4458760;32;33524;-84
2022/09/11 03:35:06;;;;;;;;;;;;;;;22.48;42.46;98850.06;4473850;31;33128;-89
2022/09/11 03:37:33;;;;;;;;;;;;;;;22.39;42.94;98848.66;4479267;32;34203;-82
2022/09/11 03:40:03;;;;;;;;;;;;;;;21.78;44.33;98857.16;4480368;32;34606;-82
2022/09/11 03:42:32;;;;;;;;;;;;;;;21.90;44.33;98858.47;4476121;32;33425;-80
2022/09/11 03:44:59;;;;;;;;;;;;;;;22.58;42.48;98859.34;4474126;32;34694;-88
2022/09/11 03:47:26;;;;;;;;;;;;;;;23.09;41.26;98860.72;4468482;32;34028;-87
2022/09/11 03:49:54;;;;;;;;;;;;;;;22.71;42.07;98870.25;4474496;32;34243;-88
2022/09/11 03:52:22;;;;;;;;;;;;;;;22.72;42.37;98871.97;4477990;32;32944;-90
2022/09/11 03:54:49;;;;;;;;;;;;;;;22.46;42.76;98865.09;4476333;32;34028;-87
2022/09/11 03:57:17;;;;;;;;;;;;;;;22.87;42.08;98866.03;4470133;32;34198;-83
2022/09/11 03:59:44;;;;;;;;;;;;;;;21.67;44.70;98869.91;4469443;32;34281;-82
2022/09/11 04:02:11;;;;;;;;;;;;;;;21.90;44.36;98860.25;4483993;32;33393;-81
2022/09/11 04:04:40;;;;;;;;;;;;;;;22.08;43.75;98860.38;4481259;32;34281;-89
2022/09/11 04:07:07;;;;;;;;;;;;;;;21.05;46.22;98872.94;4468439;32;34132;-89
2022/09/11 04:09:34;;;;;;;;;;;;;;;21.45;45.56;98876.88;4470679;32;34097;-86
2022/09/11 04:12:01;;;;;;;;;;;;;;;21.20;46.26;98880.31;4483534;32;34094;-81
2022/09/11 04:14:29;;;;;;;;;;;;;;;21.76;44.75;98880.09;4483865;31;33887;-89
2022/09/11 04:16:56;;;;;;;;;;;;;;;21.64;45.11;98880.56;4484131;32;35091;-85
2022/09/11 04:19:24;;;;;;;;;;;;;;;22.19;43.91;98878.47;4484020;32;32420;-88
2022/09/11 04:21:52;;;;;;;;;;;;;;;22.52;43.26;98873.66;4480321;31;34048;-88
2022/09/11 04:24:20;;;;;;;;;;;;;;;22.84;42.52;98876.72;4468519;32;34064;-90
2022/09/11 04:26:47;;;;;;;;;;;;;;;22.99;42.10;98880.56;4473433;32;33956;-82
2022/09/11 04:29:16;;;;;;;;;;;;;;;23.03;41.96;98879.50;4480539;32;35069;-81
2022/09/11 04:31:44;;;;;;;;;;;;;;;23.19;41.45;98882.38;4473103;32;34138;-82
2022/09/11 04:34:12;;;;;;;;;;;;;;;23.19;41.58;98880.56;4479938;32;34308;-82
2022/09/11 04:36:39;;;;;;;;;;;;;;;23.15;41.77;98875.50;4467991;32;33914;-82
2022/09/11 04:39:08;;;;;;;;;;;;;;;23.21;41.51;98880.50;4468380;32;34889;-82
2022/09/11 04:41:36;;;;;;;;;;;;;;;23.40;41.28;98883.19;4468264;32;33245;-89
2022/09/11 04:44:03;;;;;;;;;;;;;;;23.50;41.12;98887.16;4468331;32;35507;-91
2022/09/11 04:46:33;;;;;;;;;;;;;;;23.43;41.09;98880.44;4475105;32;34927;-82
2022/09/11 04:49:01;;;;;;;;;;;;;;;23.52;40.81;98875.59;4482197;32;33955;-86
2022/09/11 04:51:32;;;;;;;;;;;;;;;23.81;40.15;98878.72;4468420;32;34576;-82
2022/09/11 04:54:00;;;;;;;;;;;;;;;23.98;39.80;98883.22;4454171;32;34207;-87
2022/09/11 04:56:28;;;;;;;;;;;;;;;23.90;39.92;98880.09;4471007;32;34123;-86
2022/09/11 04:58:57;;;;;;;;;;;;;;;23.95;40.05;98878.09;4471287;32;35141;-89
2022/09/11 05:01:26;;;;;;;;;;;;;;;23.90;40.19;98877.44;4469614;32;34186;-81
2022/09/11 05:03:55;;;;;;;;;;;;;;;23.94;40.02;98874.59;4474962;32;34225;-80
2022/09/11 05:06:22;;;;;;;;;;;;;;;23.98;39.92;98876.19;4481882;32;35115;-81
2022/09/11 05:08:49;;;;;;;;;;;;;;;23.79;40.23;98873.53;4474625;32;34235;-82
2022/09/11 05:11:17;;;;;;;;;;;;;;;23.81;40.44;98875.22;4483859;32;33219;-83
2022/09/11 05:13:45;;;;;;;;;;;;;;;23.99;40.30;98872.59;4473264;32;35007;-82
2022/09/11 05:16:14;;;;;;;;;;;;;;;24.25;39.53;98868.72;4472776;32;34142;-90
2022/09/11 05:18:42;;;;;;;;;;;;;;;24.28;39.47;98865.03;4476839;32;34458;-83
2022/09/11 05:21:14;;;;;;;;;;;;;;;24.35;39.43;98881.50;4483389;32;33402;-82
2022/09/11 05:23:41;;;;;;;;;;;;;;;24.23;39.94;98883.81;4483641;32;33885;-82
2022/09/11 05:26:18;;;;;;;;;;;;;;;24.05;40.29;98895.25;4482638;31;34218;-83
2022/09/11 05:28:46;;;;;;;;;;;;;;;24.25;40.19;98897.00;4472719;32;34169;-90
2022/09/11 05:31:15;;;;;;;;;;;;;;;24.23;40.31;98898.84;4482870;32;32705;-83
2022/09/11 05:33:43;;;;;;;;;;;;;;;23.88;41.17;98896.06;4469324;32;33971;-82
2022/09/11 05:36:11;;;;;;;;;;;;;;;23.55;41.64;98907.19;4483105;32;34477;-83
2022/09/11 05:38:38;;;;;;;;;;;;;;;24.16;40.77;98906.22;4482477;32;34022;-82
2022/09/11 05:41:07;;;;;;;;;;;;;;;23.94;40.79;98903.72;4483234;32;33401;-81
2022/09/11 05:43:36;;;;;;;;;;;;;;;23.87;41.37;98909.38;4476086;32;34286;-81
2022/09/11 05:46:04;;;;;;;;;;;;;;;23.66;42.08;98908.50;4477324;32;34221;-82
2022/09/11 05:48:32;;;;;;;;;;;;;;;23.45;41.60;98903.25;4468318;32;35305;-81
2022/09/11 05:51:01;;;;;;;;;;;;;;;23.23;42.37;98902.47;4475243;32;33310;-82
2022/09/11 05:53:30;;;;;;;;;;;;;;;23.21;42.31;98907.78;4476239;32;34964;-82
2022/09/11 05:55:59;;;;;;;;;;;;;;;23.12;42.38;98910.84;4467634;32;34489;-82
2022/09/11 05:58:29;;;;;;;;;;;;;;;23.51;41.72;98915.34;4470285;32;35056;-82
2022/09/11 06:01:07;;;;;;;;;;;;;;;23.37;41.56;98923.00;4476616;32;33261;-82
2022/09/11 06:03:35;;;;;;;;;;;;;;;23.67;41.35;98919.03;4469155;32;33925;-82
2022/09/11 06:06:04;;;;;;;;;;;;;;;23.88;41.37;98924.31;4483251;32;35216;-82
2022/09/11 06:08:33;;;;;;;;;;;;;;;23.92;40.12;98921.47;4465547;32;34796;-81
2022/09/11 06:11:01;;;;;;;;;;;;;;;23.34;41.88;98925.81;4478086;32;33569;-82
2022/09/11 06:13:29;;;;;;;;;;;;;;;22.88;43.16;98927.69;4457489;32;34287;-82
2022/09/11 06:15:58;;;;;;;;;;;;;;;23.30;42.38;98935.66;4480598;32;35251;-81
2022/09/11 06:18:25;;;;;;;;;;;;;;;22.36;44.02;98937.72;4476847;32;34955;-87
2022/09/11 06:20:59;;;;;;;;;;;;;;;23.06;43.00;98934.91;4481316;32;32995;-81
2022/09/11 06:23:27;;;;;;;;;;;;;;;22.97;43.01;98930.00;4482871;32;34497;-81
2022/09/11 06:26:01;;;;;;;;;;;;;;;22.59;44.13;98930.59;4476502;32;35182;-81
2022/09/11 06:28:29;;;;;;;;;;;;;;;23.29;42.94;98934.78;4475921;32;34127;-81
2022/09/11 06:30:57;;;;;;;;;;;;;;;22.82;44.20;98929.66;4454589;32;32625;-82
2022/09/11 06:33:24;;;;;;;;;;;;;;;23.11;43.32;98922.34;4475855;31;33955;-81
2022/09/11 06:35:58;;;;;;;;;;;;;;;23.27;43.16;98918.13;4467376;32;35242;-81
2022/09/11 06:38:25;;;;;;;;;;;;;;;22.44;44.93;98927.72;4467961;32;33948;-81
2022/09/11 06:40:54;;;;;;;;;;;;;;;23.23;43.48;98921.84;4470945;32;33274;-82
2022/09/11 06:43:21;;;;;;;;;;;;;;;23.39;42.36;98921.16;4480386;32;35105;-81
2022/09/11 06:45:48;;;;;;;;;;;;;;;22.64;44.70;98908.41;4473141;32;37163;-82
2022/09/11 06:48:16;;;;;;;;;;;;;;;22.11;45.83;98917.50;4466659;32;34741;-81
2022/09/11 06:50:44;;;;;;;;;;;;;;;21.31;47.67;98925.63;4452423;32;33201;-80
2022/09/11 06:53:11;;;;;;;;;;;;;;;21.14;48.08;98925.38;4452678;32;34153;-81
2022/09/11 06:55:44;;;;;;;;;;;;;;;21.22;48.29;98920.69;4454415;32;33972;-82
2022/09/11 06:58:12;;;;;;;;;;;;;;;21.74;47.49;98918.00;4466324;32;34275;-81
2022/09/11 07:00:40;;;;;;;;;;;;;;;21.89;46.78;98927.13;4466453;32;33437;-81
2022/09/11 07:03:10;;;;;;;;;;;;;;;22.15;46.06;98919.13;4467765;32;34410;-81
2022/09/11 07:05:37;;;;;;;;;;;;;;;22.70;44.61;98916.97;4467442;32;34077;-81
2022/09/11 07:08:04;;;;;;;;;;;;;;;22.46;45.17;98910.00;4473416;32;34274;-82
2022/09/11 07:10:32;;;;;;;;;;;;;;;22.80;44.59;98918.28;4460017;32;33030;-82
2022/09/11 07:13:00;;;;;;;;;;;;;;;22.97;44.34;98908.84;4453553;32;33801;-93
2022/09/11 07:15:28;;;;;;;;;;;;;;;22.91;44.32;98907.31;4480320;32;35267;-83
2022/09/11 07:17:56;;;;;;;;;;;;;;;22.54;44.94;98911.44;4472974;32;34325;-96
2022/09/11 07:20:24;;;;;;;;;;;;;;;22.43;45.64;98896.94;4468066;32;34164;-83
2022/09/11 07:22:51;;;;;;;;;;;;;;;22.87;44.24;98902.19;4481527;32;34732;-82
2022/09/11 07:25:19;;;;;;;;;;;;;;;22.61;44.89;98896.19;4481225;32;34514;-83
2022/09/11 07:27:47;;;;;;;;;;;;;;;22.17;46.05;98897.97;4466753;32;34738;-88
2022/09/11 07:30:14;;;;;;;;;;;;;;;23.01;44.89;98902.50;4478595;32;33945;-80
2022/09/11 07:32:41;;;;;;;;;;;;;;;23.60;42.85;98892.88;4469968;32;34904;-82
2022/09/11 07:35:09;;;;;;;;;;;;;;;23.27;43.58;98894.31;4468489;32;34746;-82
2022/09/11 07:37:36;;;;;;;;;;;;;;;23.83;42.92;98889.25;4468331;32;34128;-91
2022/09/11 07:40:04;;;;;;;;;;;;;;;22.50;45.03;98899.28;4468984;32;34293;-90
2022/09/11 07:42:32;;;;;;;;;;;;;;;22.48;45.17;98890.53;4472721;32;33444;-84
2022/09/11 07:45:02;;;;;;;;;;;;;;;22.68;44.57;98897.66;4469034;32;34111;-95
2022/09/11 07:47:32;;;;;;;;;;;;;;;22.85;44.52;98901.41;4482372;32;34169;-91
2022/09/11 07:50:00;;;;;;;;;;;;;;;23.72;42.78;98901.19;4482242;31;33306;-93
2022/09/11 07:52:28;;;;;;;;;;;;;;;23.06;44.38;98901.38;4474115;32;34976;-89
2022/09/11 07:54:56;;;;;;;;;;;;;;;23.99;42.67;98898.22;4486527;32;34883;-89
2022/09/11 07:57:24;;;;;;;;;;;;;;;24.03;41.95;98908.59;4482109;32;33891;-89
2022/09/11 07:59:51;;;;;;;;;;;;;;;24.37;41.82;98906.16;4481059;32;33594;-86
2022/09/11 08:02:19;;;;;;;;;;;;;;;23.91;41.86;98903.00;4473559;32;34433;-85
2022/09/11 08:04:47;;;;;;;;;;;;;;;24.32;41.34;98902.84;4476912;32;34283;-96
2022/09/11 08:07:15;;;;;;;;;;;;;;;24.03;41.89;98908.59;4469958;32;34106;-94
2022/09/11 08:09:43;;;;;;;;;;;;;;;23.98;42.33;98915.00;4487202;31;33807;-96
2022/09/11 08:12:11;;;;;;;;;;;;;;;23.83;42.78;98915.72;4475844;32;34222;-92
2022/09/11 08:14:38;;;;;;;;;;;;;;;23.24;43.81;98912.97;4481214;32;34126;-88
2022/09/11 08:17:05;;;;;;;;;;;;;;;23.22;44.07;98914.84;4473335;32;34525;-88
2022/09/11 08:19:35;;;;;;;;;;;;;;;23.64;43.87;98905.06;4478987;32;33759;-83
2022/09/11 08:22:02;;;;;;;;;;;;;;;24.49;41.93;98905.59;4482419;32;34370;-82
2022/09/11 08:24:31;;;;;;;;;;;;;;;23.90;42.92;98909.22;4468390;32;33907;-81
2022/09/11 08:26:59;;;;;;;;;;;;;;;24.42;42.03;98909.47;4468935;32;34194;-82
2022/09/11 08:29:26;;;;;;;;;;;;;;;23.75;43.49;98902.81;4471631;32;33389;-86
2022/09/11 08:31:53;;;;;;;;;;;;;;;24.98;40.68;98906.69;4468083;32;35548;-83
2022/09/11 08:34:26;;;;;;;;;;;;;;;25.15;40.47;98905.00;4468248;32;34381;-92
2022/09/11 08:36:53;;;;;;;;;;;;;;;24.63;41.44;98902.28;4469636;32;34337;-81
2022/09/11 08:39:22;;;;;;;;;;;;;;;24.99;40.71;98902.22;4470985;32;34305;-81
2022/09/11 08:41:53;;;;;;;;;;;;;;;23.68;42.86;98904.06;4480480;32;35149;-85
2022/09/11 08:44:20;;;;;;;;;;;;;;;24.74;40.91;98900.81;4458098;32;34290;-86
2022/09/11 08:46:49;;;;;;;;;;;;;;;25.22;39.89;98901.94;4482067;32;34236;-82
2022/09/11 08:49:23;;;;;;;;;;;;;;;24.88;41.15;98907.22;4454589;32;33562;-82
2022/09/11 08:51:51;;;;;;;;;;;;;;;25.17;40.25;98905.78;4468601;32;34137;-82
2022/09/11 08:54:26;;;;;;;;;;;;;;;25.16;40.69;98902.28;4469339;32;34025;-83
2022/09/11 08:56:56;;;;;;;;;;;;;;;25.77;38.71;98907.97;4468683;32;34273;-82
2022/09/11 08:59:31;;;;;;;;;;;;;;;25.16;40.49;98906.72;4454460;32;34269;-82
2022/09/11 09:01:58;;;;;;;;;;;;;;;25.20;40.30;98909.16;4465871;32;33964;-83
2022/09/11 09:04:36;;;;;;;;;;;;;;;25.84;39.17;98909.41;4469404;32;34278;-81
2022/09/11 09:07:12;;;;;;;;;;;;;;;25.70;39.75;98902.97;4478359;32;35394;-82
2022/09/11 09:09:43;;;;;;;;;;;;;;;24.93;40.62;98906.06;4456823;32;34476;-82
2022/09/11 09:12:19;;;;;;;;;;;;;;;25.37;39.99;98905.59;4468743;32;34357;-92
2022/09/11 09:14:50;;;;;;;;;;;;;;;24.61;41.32;98905.00;4457914;32;34377;-83
2022/09/11 09:17:19;;;;;;;;;;;;;;;25.10;40.41;98902.59;4468473;32;35155;-82
2022/09/11 09:19:46;;;;;;;;;;;;;;;25.15;40.04;98902.34;4460244;32;33568;-83
2022/09/11 09:22:24;;;;;;;;;;;;;;;24.05;41.48;98892.62;4483720;32;34399;-82
2022/09/11 09:24:53;;;;;;;;;;;;;;;24.13;41.27;98894.91;4473877;31;35086;-82
2022/09/11 09:27:29;;;;;;;;;;;;;;;24.48;41.33;98898.59;4469853;32;34908;-81
2022/09/11 09:29:56;;;;;;;;;;;;;;;23.40;42.70;98910.50;4478820;32;34031;-82
2022/09/11 09:32:27;;;;;;;;;;;;;;;24.93;40.62;98903.41;4469211;32;33644;-81
2022/09/11 09:34:56;;;;;;;;;;;;;;;25.53;38.87;98899.50;4484850;32;35256;-81
2022/09/11 09:37:25;;;;;;;;;;;;;;;24.20;41.21;98897.19;4467184;32;34338;-81
2022/09/11 09:39:52;;;;;;;;;;;;;;;24.51;39.80;98901.09;4483352;32;33452;-82
2022/09/11 09:42:27;;;;;;;;;;;;;;;24.56;40.48;98900.84;4479600;32;35131;-84
2022/09/11 09:44:54;;;;;;;;;;;;;;;24.74;40.89;98898.16;4472279;32;34185;-82
2022/09/11 09:47:21;;;;;;;;;;;;;;;23.99;41.49;98903.50;4472324;32;34267;-81
2022/09/11 09:49:48;;;;;;;;;;;;;;;25.26;38.40;98901.81;4468231;32;34453;-81
2022/09/11 09:52:20;;;;;;;;;;;;;;;25.32;39.13;98901.50;4465716;32;34497;-81
2022/09/11 09:54:59;;;;;;;;;;;;;;;26.18;37.54;98885.38;4453773;32;33406;-81
2022/09/11 09:57:31;;;;;;;;;;;;;;;25.46;39.51;98893.69;4467158;32;34290;-82
2022/09/11 10:00:07;;;;;;;;;;;;;;;24.52;40.37;98884.25;4460824;32;34217;-81
2022/09/11 10:02:44;;;;;;;;;;;;;;;26.00;37.23;98894.34;4472762;32;33912;-80
2022/09/11 10:05:12;;;;;;;;;;;;;;;25.58;38.80;98890.38;4468825;32;35746;-90
2022/09/11 10:07:46;;;;;;;;;;;;;;;26.15;37.74;98896.16;4479864;32;34207;-93
2022/09/11 10:10:26;;;;;;;;;;;;;;;25.35;38.96;98896.87;4458229;32;33538;-90
2022/09/11 10:12:54;;;;;;;;;;;;;;;26.01;37.79;98896.06;4472905;32;34142;-89
2022/09/11 10:15:41;;;;;;;;;;;;;;;25.68;38.93;98904.88;4458916;32;35307;-88
2022/09/11 10:18:22;;;;;;;;;;;;;;;25.76;38.18;98900.94;4467241;32;34075;-90
2022/09/11 10:20:50;;;;;;;;;;;;;;;26.10;37.11;98900.88;4470524;32;34173;-90
2022/09/11 10:23:24;;;;;;;;;;;;;;;26.24;37.11;98899.25;4469962;32;34647;-90
2022/09/11 10:25:52;;;;;;;;;;;;;;;25.51;38.61;98901.41;4471683;32;34112;-84
2022/09/11 10:28:23;;;;;;;;;;;;;;;25.61;38.08;98900.84;4462322;32;34513;-89
2022/09/11 10:30:56;;;;;;;;;;;;;;;25.33;39.13;98903.19;4472984;32;33478;-95
2022/09/11 10:33:25;;;;;;;;;;;;;;;24.67;40.37;98899.41;4469203;32;34298;-89
2022/09/11 10:35:54;;;;;;;;;;;;;;;25.21;38.96;98899.38;4467966;32;33786;-82
2022/09/11 10:38:44;;;;;;;;;;;;;;;25.43;38.80;98900.00;4458696;32;34345;-87
2022/09/11 10:41:12;;;;;;;;;;;;;;;24.95;40.18;98896.22;4463017;32;33008;-92
2022/09/11 10:43:51;;;;;;;;;;;;;;;24.94;40.37;98896.31;4471108;32;34464;-92
2022/09/11 10:46:21;;;;;;;;;;;;;;;25.05;40.37;98893.97;4471854;32;34275;-82
2022/09/11 10:48:54;;;;;;;;;;;;;;;24.64;40.97;98896.91;4472913;31;34720;-81
2022/09/11 10:51:22;;;;;;;;;;;;;;;25.16;39.80;98891.66;4471944;32;33458;-81
2022/09/11 10:53:50;;;;;;;;;;;;;;;24.99;40.11;98884.53;4457422;32;35139;-81
2022/09/11 10:56:17;;;;;;;;;;;;;;;25.62;39.35;98876.00;4474321;32;34228;-82
2022/09/11 10:58:45;;;;;;;;;;;;;;;24.94;40.58;98869.78;4459185;32;32621;-85
2022/09/11 11:01:12;;;;;;;;;;;;;;;25.12;40.15;98866.25;4472302;32;33047;-80
2022/09/11 11:03:39;;;;;;;;;;;;;;;25.91;39.27;98869.16;4473051;31;34984;-86
2022/09/11 11:06:22;;;;;;;;;;;;;;;24.98;40.45;98868.69;4474276;32;34051;-80
2022/09/11 11:09:07;;;;;;;;;;;;;;;24.70;40.59;98880.69;4474725;32;35062;-82
2022/09/11 11:11:34;;;;;;;;;;;;;;;25.00;39.93;98877.41;4460308;32;34206;-82
2022/09/11 11:14:04;;;;;;;;;;;;;;;25.62;39.17;98873.34;4475090;32;34419;-82
2022/09/11 11:16:34;;;;;;;;;;;;;;;25.37;38.94;98872.91;4473127;32;34433;-90
2022/09/11 11:19:05;;;;;;;;;;;;;;;24.54;40.80;98876.22;4474834;32;34250;-83
2022/09/11 11:21:32;;;;;;;;;;;;;;;25.14;39.69;98874.09;4472573;32;34311;-91
2022/09/11 11:24:23;;;;;;;;;;;;;;;24.60;40.10;98871.47;4476055;32;33971;-86
2022/09/11 11:26:59;;;;;;;;;;;;;;;25.80;38.78;98870.66;4466652;32;34420;-90
2022/09/11 11:29:29;;;;;;;;;;;;;;;25.14;39.78;98864.34;4473719;32;33872;-88
2022/09/11 11:32:15;;;;;;;;;;;;;;;25.06;39.95;98868.31;4481054;32;34145;-85
2022/09/11 11:34:42;;;;;;;;;;;;;;;25.09;38.90;98861.06;4467035;32;33559;-86
2022/09/11 11:37:11;;;;;;;;;;;;;;;25.43;37.31;98862.84;4473523;32;35245;-88
2022/09/11 11:39:59;;;;;;;;;;;;;;;24.68;38.11;98861.34;4454261;32;34896;-87
2022/09/11 11:42:27;;;;;;;;;;;;;;;24.91;38.41;98864.63;4454347;32;33534;-85
2022/09/11 11:45:15;;;;;;;;;;;;;;;25.58;37.81;98861.16;4469500;32;34247;-81
2022/09/11 11:47:42;;;;;;;;;;;;;;;26.05;36.88;98852.44;4462290;32;34817;-81
2022/09/11 11:50:12;;;;;;;;;;;;;;;25.54;37.35;98862.28;4483756;32;34398;-81
2022/09/11 11:52:42;;;;;;;;;;;;;;;26.24;36.17;98854.06;4461305;32;33449;-81
2022/09/11 11:55:24;;;;;;;;;;;;;;;25.48;37.97;98863.44;4454387;32;34738;-88
2022/09/11 11:57:56;;;;;;;;;;;;;;;26.03;37.33;98857.00;4479634;32;34101;-86
2022/09/11 12:00:24;;;;;;;;;;;;;;;26.61;35.91;98848.41;4465194;32;34113;-89
2022/09/11 12:02:53;;;;;;;;;;;;;;;26.01;36.34;98848.22;4454249;32;34130;-81
2022/09/11 12:05:25;;;;;;;;;;;;;;;25.68;37.17;98851.78;4453979;32;34303;-82
2022/09/11 12:07:52;;;;;;;;;;;;;;;25.91;36.78;98850.56;4468576;32;35152;-84
2022/09/11 12:10:21;;;;;;;;;;;;;;;25.94;36.41;98849.50;4470162;32;33871;-83
2022/09/11 12:12:56;;;;;;;;;;;;;;;26.38;34.94;98838.19;4454410;32;33461;-86
2022/09/11 12:15:24;;;;;;;;;;;;;;;25.66;36.51;98853.66;4465741;32;34889;-92
2022/09/11 12:18:02;;;;;;;;;;;;;;;24.61;39.80;98867.88;4464780;32;34950;-92
2022/09/11 12:20:30;;;;;;;;;;;;;;;23.77;43.38;98869.22;4460356;32;35008;-84
2022/09/11 12:22:58;;;;;;;;;;;;;;;24.57;44.73;98876.06;4467913;32;33962;-89
2022/09/11 12:25:28;;;;;;;;;;;;;;;23.85;47.63;98876.81;4461350;31;35073;-94
2022/09/11 12:28:15;;;;;;;;;;;;;;;24.89;46.29;98878.00;4475499;32;32316;-95
2022/09/11 12:30:58;;;;;;;;;;;;;;;24.65;47.56;98880.03;4460292;32;34794;-87
2022/09/11 12:33:39;;;;;;;;;;;;;;;24.37;48.29;98874.34;4463594;32;32747;-91
2022/09/11 12:36:07;;;;;;;;;;;;;;;23.41;50.79;98876.97;4480951;32;34004;-92
2022/09/11 12:38:36;;;;;;;;;;;;;;;24.40;49.33;98866.31;4463501;32;35347;-83
2022/09/11 12:41:08;;;;;;;;;;;;;;;24.67;50.34;98866.75;4464211;32;34644;-84
2022/09/11 12:43:36;;;;;;;;;;;;;;;25.58;46.77;98868.28;4447311;32;32782;-85
2022/09/11 12:46:04;;;;;;;;;;;;;;;25.16;49.30;98867.78;4480923;32;34906;-83
2022/09/11 12:48:41;;;;;;;;;;;;;;;24.32;48.73;98871.94;4467386;32;34462;-88
2022/09/11 12:51:18;;;;;;;;;;;;;;;24.96;47.52;98865.25;4459268;32;34915;-85
2022/09/11 12:53:46;;;;;;;;;;;;;;;25.83;46.09;98858.06;4476814;32;33091;-92
2022/09/11 12:56:20;;;;;;;;;;;;;;;26.06;44.49;98861.25;4480148;32;34229;-88
2022/09/11 12:58:55;;;;;;;;;;;;;;;25.19;45.75;98865.00;4455930;32;34162;-82
2022/09/11 13:01:24;;;;;;;;;;;;;;;25.92;44.30;98864.69;4469347;32;33948;-87
2022/09/11 13:04:02;;;;;;;;;;;;;;;26.09;44.44;98864.59;4470577;32;32936;-83